sensor_id;sensor_type;location;lat;lon;timestamp;pressure;altitude;pressure_sealevel;temperature;humidity
25156;BME280;21913;52.456;13.634;2023-05-23T00:03:38;100251.50;;;15.80;76.22
25156;BME280;21913;52.456;13.634;2023-05-23T00:08:39;100252.41;;;15.79;76.48
25156;BME280;21913;52.456;13.634;2023-05-23T00:13:41;100244.56;;;15.79;76.22
25156;BME280;21913;52.456;13.634;2023-05-23T00:18:42;100252.41;;;15.79;76.33
25156;BME280;21913;52.456;13.634;2023-05-23T00:23:44;100248.03;;;15.80;76.13
25156;BME280;21913;52.456;13.634;2023-05-23T00:28:45;100256.75;;;15.78;76.16
25156;BME280;21913;52.456;13.634;2023-05-23T00:33:47;100252.41;;;15.79;76.57
25156;BME280;21913;52.456;13.634;2023-05-23T00:38:48;100257.63;;;15.79;76.22
25156;BME280;21913;52.456;13.634;2023-05-23T00:43:50;100261.13;;;15.78;76.52
25156;BME280;21913;52.456;13.634;2023-05-23T00:48:52;100265.44;;;15.79;76.57
25156;BME280;21913;52.456;13.634;2023-05-23T00:53:55;100271.53;;;15.80;76.33
25156;BME280;21913;52.456;13.634;2023-05-23T00:58:57;100265.44;;;15.79;76.47
25156;BME280;21913;52.456;13.634;2023-05-23T01:03:59;100275.03;;;15.78;76.13
25156;BME280;21913;52.456;13.634;2023-05-23T01:09:01;100275.88;;;15.79;76.54
25156;BME280;21913;52.456;13.634;2023-05-23T01:14:08;100283.72;;;15.79;76.39
25156;BME280;21913;52.456;13.634;2023-05-23T01:24:56;100294.13;;;15.79;76.48
25156;BME280;21913;52.456;13.634;2023-05-23T01:30:03;100298.47;;;15.80;76.31
25156;BME280;21913;52.456;13.634;2023-05-23T01:35:08;100290.69;;;15.78;76.48
25156;BME280;21913;52.456;13.634;2023-05-23T01:40:11;100297.66;;;15.78;76.56
25156;BME280;21913;52.456;13.634;2023-05-23T01:45:13;100303.72;;;15.78;76.21
25156;BME280;21913;52.456;13.634;2023-05-23T01:50:15;100305.44;;;15.80;76.20
25156;BME280;21913;52.456;13.634;2023-05-23T01:55:19;100301.97;;;15.79;76.43
25156;BME280;21913;52.456;13.634;2023-05-23T02:00:22;100308.91;;;15.80;76.50
25156;BME280;21913;52.456;13.634;2023-05-23T02:05:26;100308.03;;;15.80;76.46
25156;BME280;21913;52.456;13.634;2023-05-23T02:10:28;100307.19;;;15.79;76.23
25156;BME280;21913;52.456;13.634;2023-05-23T02:15:29;100307.22;;;15.77;76.32
25156;BME280;21913;52.456;13.634;2023-05-23T02:20:32;100313.31;;;15.78;76.22
25156;BME280;21913;52.456;13.634;2023-05-23T02:25:33;100318.50;;;15.78;76.26
25156;BME280;21913;52.456;13.634;2023-05-23T02:30:35;100315.06;;;15.77;76.52
25156;BME280;21913;52.456;13.634;2023-05-23T02:35:38;100311.53;;;15.78;76.64
25156;BME280;21913;52.456;13.634;2023-05-23T02:40:40;100313.31;;;15.78;76.18
25156;BME280;21913;52.456;13.634;2023-05-23T02:45:41;100316.75;;;15.78;76.32
25156;BME280;21913;52.456;13.634;2023-05-23T02:50:43;100320.25;;;15.77;76.64
25156;BME280;21913;52.456;13.634;2023-05-23T02:55:45;100324.59;;;15.78;76.55
25156;BME280;21913;52.456;13.634;2023-05-23T03:00:46;100322.88;;;15.77;76.18
25156;BME280;21913;52.456;13.634;2023-05-23T03:05:48;100321.97;;;15.78;76.36
25156;BME280;21913;52.456;13.634;2023-05-23T03:10:50;100316.75;;;15.78;76.39
25156;BME280;21913;52.456;13.634;2023-05-23T03:15:51;100328.94;;;15.78;76.47
25156;BME280;21913;52.456;13.634;2023-05-23T03:20:53;100331.56;;;15.78;76.58
25156;BME280;21913;52.456;13.634;2023-05-23T03:25:56;100326.34;;;15.78;76.26
25156;BME280;21913;52.456;13.634;2023-05-23T03:30:58;100328.09;;;15.77;76.31
25156;BME280;21913;52.456;13.634;2023-05-23T03:36:00;100328.09;;;15.77;76.46
25156;BME280;21913;52.456;13.634;2023-05-23T03:41:01;100332.44;;;15.77;76.52
25156;BME280;21913;52.456;13.634;2023-05-23T03:46:03;100328.09;;;15.77;76.44
25156;BME280;21913;52.456;13.634;2023-05-23T03:51:04;100334.16;;;15.78;76.49
25156;BME280;21913;52.456;13.634;2023-05-23T03:56:06;100343.75;;;15.77;76.28
25156;BME280;21913;52.456;13.634;2023-05-23T04:01:08;100343.75;;;15.77;76.46
25156;BME280;21913;52.456;13.634;2023-05-23T04:06:09;100344.59;;;15.78;76.30
25156;BME280;21913;52.456;13.634;2023-05-23T04:11:14;100349.81;;;15.78;76.66
25156;BME280;21913;52.456;13.634;2023-05-23T04:16:16;100351.56;;;15.77;76.39
25156;BME280;21913;52.456;13.634;2023-05-23T04:21:18;100354.19;;;15.77;76.41
25156;BME280;21913;52.456;13.634;2023-05-23T04:26:36;100351.56;;;15.77;76.55
25156;BME280;21913;52.456;13.634;2023-05-23T04:31:38;100361.13;;;15.78;76.42
25156;BME280;21913;52.456;13.634;2023-05-23T04:36:40;100358.53;;;15.77;76.45
25156;BME280;21913;52.456;13.634;2023-05-23T04:41:41;100369.84;;;15.77;76.39
25156;BME280;21913;52.456;13.634;2023-05-23T04:46:52;100357.66;;;15.76;76.69
25156;BME280;21913;52.456;13.634;2023-05-23T04:51:59;100362.00;;;15.77;76.33
25156;BME280;21913;52.456;13.634;2023-05-23T04:57:02;100378.50;;;15.78;76.48
25156;BME280;21913;52.456;13.634;2023-05-23T05:02:04;100382.88;;;15.77;76.52
25156;BME280;21913;52.456;13.634;2023-05-23T05:07:07;100385.50;;;15.77;76.35
25156;BME280;21913;52.456;13.634;2023-05-23T05:12:08;100385.50;;;15.77;76.57
25156;BME280;21913;52.456;13.634;2023-05-23T05:17:10;100393.31;;;15.77;76.65
25156;BME280;21913;52.456;13.634;2023-05-23T05:22:22;100392.44;;;15.77;76.47
25156;BME280;21913;52.456;13.634;2023-05-23T05:27:24;100404.59;;;15.76;76.70
25156;BME280;21913;52.456;13.634;2023-05-23T05:32:28;100399.38;;;15.76;76.28
25156;BME280;21913;52.456;13.634;2023-05-23T05:37:30;100402.00;;;15.76;76.42
25156;BME280;21913;52.456;13.634;2023-05-23T05:42:32;100409.81;;;15.76;76.53
25156;BME280;21913;52.456;13.634;2023-05-23T05:47:33;100414.19;;;15.76;76.57
25156;BME280;21913;52.456;13.634;2023-05-23T05:52:38;100419.41;;;15.76;76.73
25156;BME280;21913;52.456;13.634;2023-05-23T05:57:40;100426.38;;;15.77;76.59
25156;BME280;21913;52.456;13.634;2023-05-23T06:02:44;100435.91;;;15.76;76.36
25156;BME280;21913;52.456;13.634;2023-05-23T06:07:47;100434.19;;;15.77;76.51
25156;BME280;21913;52.456;13.634;2023-05-23T06:12:49;100431.59;;;15.75;76.63
25156;BME280;21913;52.456;13.634;2023-05-23T06:17:51;100438.56;;;15.75;76.38
25156;BME280;21913;52.456;13.634;2023-05-23T06:22:53;100449.84;;;15.75;76.29
25156;BME280;21913;52.456;13.634;2023-05-23T06:27:54;100444.63;;;15.75;76.42
25156;BME280;21913;52.456;13.634;2023-05-23T06:32:57;100449.84;;;15.75;76.59
25156;BME280;21913;52.456;13.634;2023-05-23T06:37:59;100459.38;;;15.76;76.64
25156;BME280;21913;52.456;13.634;2023-05-23T06:43:00;100462.03;;;15.75;76.49
25156;BME280;21913;52.456;13.634;2023-05-23T06:48:28;100468.13;;;15.74;76.75
25156;BME280;21913;52.456;13.634;2023-05-23T06:53:29;100481.16;;;15.75;76.67
25156;BME280;21913;52.456;13.634;2023-05-23T06:58:31;100480.28;;;15.75;76.35
25156;BME280;21913;52.456;13.634;2023-05-23T07:03:35;100494.19;;;15.75;76.46
25156;BME280;21913;52.456;13.634;2023-05-23T07:08:40;100495.09;;;15.74;76.53
25156;BME280;21913;52.456;13.634;2023-05-23T07:13:43;100502.91;;;15.74;76.34
25156;BME280;21913;52.456;13.634;2023-05-23T07:18:52;100513.34;;;15.74;76.70
25156;BME280;21913;52.456;13.634;2023-05-23T07:23:54;100513.34;;;15.74;76.50
25156;BME280;21913;52.456;13.634;2023-05-23T07:28:57;100513.34;;;15.74;76.31
25156;BME280;21913;52.456;13.634;2023-05-23T07:33:59;100517.72;;;15.74;76.48
25156;BME280;21913;52.456;13.634;2023-05-23T07:39:08;100529.00;;;15.74;76.52
25156;BME280;21913;52.456;13.634;2023-05-23T07:44:10;100534.22;;;15.74;76.45
25156;BME280;21913;52.456;13.634;2023-05-23T07:49:12;100541.19;;;15.74;76.45
25156;BME280;21913;52.456;13.634;2023-05-23T07:54:14;100549.00;;;15.74;76.62
25156;BME280;21913;52.456;13.634;2023-05-23T07:59:17;100555.97;;;15.73;76.44
25156;BME280;21913;52.456;13.634;2023-05-23T08:04:21;100554.22;;;15.74;76.67
25156;BME280;21913;52.456;13.634;2023-05-23T08:09:26;100557.72;;;15.73;76.57
25156;BME280;21913;52.456;13.634;2023-05-23T08:14:30;100562.06;;;15.74;76.20
25156;BME280;21913;52.456;13.634;2023-05-23T08:19:49;100566.41;;;15.73;76.44
25156;BME280;21913;52.456;13.634;2023-05-23T08:24:51;100574.28;;;15.72;76.57
25156;BME280;21913;52.456;13.634;2023-05-23T08:29:54;100586.41;;;15.73;76.44
25156;BME280;21913;52.456;13.634;2023-05-23T08:34:56;100590.78;;;15.72;76.26
25156;BME280;21913;52.456;13.634;2023-05-23T08:39:58;100588.16;;;15.72;76.33
25156;BME280;21913;52.456;13.634;2023-05-23T08:45:13;100601.22;;;15.72;76.23
25156;BME280;21913;52.456;13.634;2023-05-23T08:50:16;100609.03;;;15.72;76.33
25156;BME280;21913;52.456;13.634;2023-05-23T08:55:21;100622.09;;;15.72;76.62
25156;BME280;21913;52.456;13.634;2023-05-23T09:00:25;100629.03;;;15.73;76.62
25156;BME280;21913;52.456;13.634;2023-05-23T09:05:28;100624.69;;;15.72;76.24
25156;BME280;21913;52.456;13.634;2023-05-23T09:10:30;100629.91;;;15.72;76.32
25156;BME280;21913;52.456;13.634;2023-05-23T09:21:02;100642.09;;;15.72;76.51
25156;BME280;21913;52.456;13.634;2023-05-23T09:26:10;100646.44;;;15.71;76.35
25156;BME280;21913;52.456;13.634;2023-05-23T09:31:11;100651.66;;;15.71;76.39
25156;BME280;21913;52.456;13.634;2023-05-23T09:36:13;100664.72;;;15.71;76.61
25156;BME280;21913;52.456;13.634;2023-05-23T09:41:18;100682.94;;;15.73;76.32
25156;BME280;21913;52.456;13.634;2023-05-23T09:46:21;100675.16;;;15.71;76.21
25156;BME280;21913;52.456;13.634;2023-05-23T09:51:23;100677.75;;;15.71;76.23
25156;BME280;21913;52.456;13.634;2023-05-23T09:56:25;100681.22;;;15.72;76.30
25156;BME280;21913;52.456;13.634;2023-05-23T10:01:29;100697.75;;;15.72;76.53
25156;BME280;21913;52.456;13.634;2023-05-23T10:06:45;100690.81;;;15.71;76.37
25156;BME280;21913;52.456;13.634;2023-05-23T10:17:07;100704.69;;;15.72;76.50
25156;BME280;21913;52.456;13.634;2023-05-23T10:22:11;100689.91;;;15.71;76.55
25156;BME280;21913;52.456;13.634;2023-05-23T10:27:14;100708.16;;;15.71;76.26
25156;BME280;21913;52.456;13.634;2023-05-23T10:32:16;100711.66;;;15.71;76.66
25156;BME280;21913;52.456;13.634;2023-05-23T10:37:35;100709.06;;;15.71;76.47
25156;BME280;21913;52.456;13.634;2023-05-23T10:47:40;100729.06;;;15.69;76.41
25156;BME280;21913;52.456;13.634;2023-05-23T10:52:42;100720.38;;;15.69;76.25
25156;BME280;21913;52.456;13.634;2023-05-23T10:57:43;100723.88;;;15.68;76.48
25156;BME280;21913;52.456;13.634;2023-05-23T11:02:52;100731.66;;;15.71;76.51
25156;BME280;21913;52.456;13.634;2023-05-23T11:08:07;100726.44;;;15.69;76.24
25156;BME280;21913;52.456;13.634;2023-05-23T11:13:08;100736.88;;;15.69;76.36
25156;BME280;21913;52.456;13.634;2023-05-23T11:18:18;100730.78;;;15.70;76.11
25156;BME280;21913;52.456;13.634;2023-05-23T11:23:21;100740.38;;;15.71;76.50
25156;BME280;21913;52.456;13.634;2023-05-23T11:28:23;100731.66;;;15.69;76.46
25156;BME280;21913;52.456;13.634;2023-05-23T11:33:24;100739.50;;;15.69;76.02
25156;BME280;21913;52.456;13.634;2023-05-23T11:38:26;100746.47;;;15.69;76.11
25156;BME280;21913;52.456;13.634;2023-05-23T11:43:27;100755.16;;;15.69;76.03
25156;BME280;21913;52.456;13.634;2023-05-23T11:48:29;100769.91;;;15.70;76.38
25156;BME280;21913;52.456;13.634;2023-05-23T11:53:31;100765.59;;;15.69;76.37
25156;BME280;21913;52.456;13.634;2023-05-23T12:03:47;100789.03;;;15.71;75.93
25156;BME280;21913;52.456;13.634;2023-05-23T12:08:50;100786.44;;;15.69;76.18
25156;BME280;21913;52.456;13.634;2023-05-23T12:13:52;100789.94;;;15.68;75.89
25156;BME280;21913;52.456;13.634;2023-05-23T12:18:54;100779.50;;;15.70;76.03
25156;BME280;21913;52.456;13.634;2023-05-23T12:23:55;100776.88;;;15.70;76.32
25156;BME280;21913;52.456;13.634;2023-05-23T12:28:57;100777.75;;;15.70;76.12
25156;BME280;21913;52.456;13.634;2023-05-23T12:33:58;100775.16;;;15.69;76.01
25156;BME280;21913;52.456;13.634;2023-05-23T12:39:04;100777.75;;;15.70;75.83
25156;BME280;21913;52.456;13.634;2023-05-23T12:44:05;100782.09;;;15.70;76.30
25156;BME280;21913;52.456;13.634;2023-05-23T12:49:07;100782.97;;;15.69;75.83
25156;BME280;21913;52.456;13.634;2023-05-23T12:54:08;100781.22;;;15.69;75.90
25156;BME280;21913;52.456;13.634;2023-05-23T12:59:10;100778.63;;;15.69;75.88
25156;BME280;21913;52.456;13.634;2023-05-23T13:04:11;100770.81;;;15.68;75.79
25156;BME280;21913;52.456;13.634;2023-05-23T13:09:13;100767.34;;;15.69;76.06
25156;BME280;21913;52.456;13.634;2023-05-23T13:14:14;100773.41;;;15.69;75.82
25156;BME280;21913;52.456;13.634;2023-05-23T13:19:16;100766.47;;;15.68;76.10
25156;BME280;21913;52.456;13.634;2023-05-23T13:24:18;100777.75;;;15.69;75.77
25156;BME280;21913;52.456;13.634;2023-05-23T13:29:19;100780.38;;;15.69;76.02
25156;BME280;21913;52.456;13.634;2023-05-23T13:34:21;100782.13;;;15.68;75.88
25156;BME280;21913;52.456;13.634;2023-05-23T13:39:22;100782.13;;;15.68;75.85
25156;BME280;21913;52.456;13.634;2023-05-23T13:44:24;100785.56;;;15.70;75.95
25156;BME280;21913;52.456;13.634;2023-05-23T13:49:25;100781.22;;;15.69;75.66
25156;BME280;21913;52.456;13.634;2023-05-23T13:54:27;100772.53;;;15.69;75.71
25156;BME280;21913;52.456;13.634;2023-05-23T13:59:28;100780.34;;;15.70;75.64
25156;BME280;21913;52.456;13.634;2023-05-23T14:04:31;100783.84;;;15.69;75.75
25156;BME280;21913;52.456;13.634;2023-05-23T14:09:33;100781.22;;;15.69;75.73
25156;BME280;21913;52.456;13.634;2023-05-23T14:14:34;100781.25;;;15.68;75.91
25156;BME280;21913;52.456;13.634;2023-05-23T14:19:36;100796.00;;;15.70;75.72
25156;BME280;21913;52.456;13.634;2023-05-23T14:24:37;100790.78;;;15.70;75.99
25156;BME280;21913;52.456;13.634;2023-05-23T14:29:39;100786.44;;;15.69;75.70
25156;BME280;21913;52.456;13.634;2023-05-23T14:34:40;100782.97;;;15.69;75.63
25156;BME280;21913;52.456;13.634;2023-05-23T14:39:42;100791.66;;;15.69;76.01
25156;BME280;21913;52.456;13.634;2023-05-23T14:44:43;100793.41;;;15.69;75.86
25156;BME280;21913;52.456;13.634;2023-05-23T14:49:45;100791.69;;;15.68;75.64
25156;BME280;21913;52.456;13.634;2023-05-23T14:54:46;100806.47;;;15.69;75.81
25156;BME280;21913;52.456;13.634;2023-05-23T14:59:48;100796.03;;;15.69;75.78
25156;BME280;21913;52.456;13.634;2023-05-23T15:04:49;100796.91;;;15.68;75.78
25156;BME280;21913;52.456;13.634;2023-05-23T15:09:51;100802.13;;;15.68;75.73
25156;BME280;21913;52.456;13.634;2023-05-23T15:14:53;100807.34;;;15.68;75.92
25156;BME280;21913;52.456;13.634;2023-05-23T15:19:54;100802.13;;;15.68;75.79
25156;BME280;21913;52.456;13.634;2023-05-23T15:24:57;100803.00;;;15.67;75.88
25156;BME280;21913;52.456;13.634;2023-05-23T15:29:59;100803.84;;;15.69;75.73
25156;BME280;21913;52.456;13.634;2023-05-23T15:35:01;100809.09;;;15.67;75.95
25156;BME280;21913;52.456;13.634;2023-05-23T15:40:03;100807.34;;;15.68;75.86
25156;BME280;21913;52.456;13.634;2023-05-23T15:45:05;100806.47;;;15.67;75.81
25156;BME280;21913;52.456;13.634;2023-05-23T15:50:07;100805.63;;;15.67;75.82
25156;BME280;21913;52.456;13.634;2023-05-23T15:55:09;100799.53;;;15.66;75.77
25156;BME280;21913;52.456;13.634;2023-05-23T16:00:11;100797.78;;;15.67;75.76
25156;BME280;21913;52.456;13.634;2023-05-23T16:05:13;100801.28;;;15.67;75.51
25156;BME280;21913;52.456;13.634;2023-05-23T16:10:14;100807.34;;;15.68;75.46
25156;BME280;21913;52.456;13.634;2023-05-23T16:15:16;100804.75;;;15.66;75.46
25156;BME280;21913;52.456;13.634;2023-05-23T16:20:17;100805.63;;;15.67;75.75
25156;BME280;21913;52.456;13.634;2023-05-23T16:25:19;100805.63;;;15.67;75.60
25156;BME280;21913;52.456;13.634;2023-05-23T16:30:21;100815.19;;;15.66;75.87
25156;BME280;21913;52.456;13.634;2023-05-23T16:35:22;100815.19;;;15.66;75.89
25156;BME280;21913;52.456;13.634;2023-05-23T16:40:24;100808.22;;;15.67;75.90
25156;BME280;21913;52.456;13.634;2023-05-23T16:45:25;100809.09;;;15.67;75.70
25156;BME280;21913;52.456;13.634;2023-05-23T16:50:27;100812.59;;;15.66;75.56
25156;BME280;21913;52.456;13.634;2023-05-23T16:55:35;100815.19;;;15.66;75.56
25156;BME280;21913;52.456;13.634;2023-05-23T17:00:37;100819.56;;;15.66;75.70
25156;BME280;21913;52.456;13.634;2023-05-23T17:05:38;100818.66;;;15.65;75.53
25156;BME280;21913;52.456;13.634;2023-05-23T17:10:40;100818.66;;;15.65;75.83
25156;BME280;21913;52.456;13.634;2023-05-23T17:15:42;100818.66;;;15.65;75.85
25156;BME280;21913;52.456;13.634;2023-05-23T17:20:43;100822.16;;;15.66;75.83
25156;BME280;21913;52.456;13.634;2023-05-23T17:25:45;100816.94;;;15.64;75.58
25156;BME280;21913;52.456;13.634;2023-05-23T17:30:47;100828.22;;;15.65;75.71
25156;BME280;21913;52.456;13.634;2023-05-23T17:35:48;100817.78;;;15.65;75.96
25156;BME280;21913;52.456;13.634;2023-05-23T17:40:50;100828.22;;;15.65;75.52
25156;BME280;21913;52.456;13.634;2023-05-23T17:45:51;100832.59;;;15.64;75.60
25156;BME280;21913;52.456;13.634;2023-05-23T17:50:53;100823.91;;;15.64;75.78
25156;BME280;21913;52.456;13.634;2023-05-23T17:55:54;100829.09;;;15.64;75.96
25156;BME280;21913;52.456;13.634;2023-05-23T18:00:56;100829.09;;;15.64;75.75
25156;BME280;21913;52.456;13.634;2023-05-23T18:05:57;100831.72;;;15.64;75.97
25156;BME280;21913;52.456;13.634;2023-05-23T18:10:59;100827.38;;;15.64;75.51
25156;BME280;21913;52.456;13.634;2023-05-23T18:16:00;100832.59;;;15.64;75.80
25156;BME280;21913;52.456;13.634;2023-05-23T18:21:02;100841.28;;;15.65;75.51
25156;BME280;21913;52.456;13.634;2023-05-23T18:26:04;100843.91;;;15.63;76.02
25156;BME280;21913;52.456;13.634;2023-05-23T18:31:06;100846.50;;;15.63;75.53
25156;BME280;21913;52.456;13.634;2023-05-23T18:36:07;100843.00;;;15.64;75.94
25156;BME280;21913;52.456;13.634;2023-05-23T18:41:09;100848.25;;;15.63;75.57
25156;BME280;21913;52.456;13.634;2023-05-23T18:46:10;100856.09;;;15.63;75.60
25156;BME280;21913;52.456;13.634;2023-05-23T18:51:12;100854.34;;;15.63;75.97
25156;BME280;21913;52.456;13.634;2023-05-23T18:56:14;100864.78;;;15.63;75.87
25156;BME280;21913;52.456;13.634;2023-05-23T19:01:15;100866.50;;;15.63;75.63
25156;BME280;21913;52.456;13.634;2023-05-23T19:06:17;100878.66;;;15.62;75.93
25156;BME280;21913;52.456;13.634;2023-05-23T19:11:19;100890.84;;;15.62;75.82
25156;BME280;21913;52.456;13.634;2023-05-23T19:16:20;100900.41;;;15.61;75.64
25156;BME280;21913;52.456;13.634;2023-05-23T19:21:22;100909.97;;;15.62;75.67
25156;BME280;21913;52.456;13.634;2023-05-23T19:26:23;100916.06;;;15.61;75.89
25156;BME280;21913;52.456;13.634;2023-05-23T19:31:25;100918.66;;;15.61;75.68
25156;BME280;21913;52.456;13.634;2023-05-23T19:36:26;100929.09;;;15.61;75.56
25156;BME280;21913;52.456;13.634;2023-05-23T19:41:28;100927.38;;;15.62;75.86
25156;BME280;21913;52.456;13.634;2023-05-23T19:46:29;100929.97;;;15.62;75.55
25156;BME280;21913;52.456;13.634;2023-05-23T19:51:31;100927.34;;;15.60;75.93
25156;BME280;21913;52.456;13.634;2023-05-23T19:56:32;100937.78;;;15.60;75.49
25156;BME280;21913;52.456;13.634;2023-05-23T20:01:34;100950.81;;;15.60;75.81
25156;BME280;21913;52.456;13.634;2023-05-23T20:06:36;100956.03;;;15.60;75.53
25156;BME280;21913;52.456;13.634;2023-05-23T20:11:37;100963.00;;;15.60;75.84
25156;BME280;21913;52.456;13.634;2023-05-23T20:16:39;100963.88;;;15.60;75.47
25156;BME280;21913;52.456;13.634;2023-05-23T20:21:40;100965.59;;;15.60;75.78
25156;BME280;21913;52.456;13.634;2023-05-23T20:26:42;100982.13;;;15.60;75.75
25156;BME280;21913;52.456;13.634;2023-05-23T20:31:43;100984.75;;;15.59;75.69
25156;BME280;21913;52.456;13.634;2023-05-23T20:36:45;100985.63;;;15.59;75.74
25156;BME280;21913;52.456;13.634;2023-05-23T20:41:46;100997.78;;;15.60;75.59
25156;BME280;21913;52.456;13.634;2023-05-23T20:46:48;100995.16;;;15.60;75.61
25156;BME280;21913;52.456;13.634;2023-05-23T20:51:49;101002.13;;;15.60;75.45
25156;BME280;21913;52.456;13.634;2023-05-23T20:56:51;101003.88;;;15.59;75.80
25156;BME280;21913;52.456;13.634;2023-05-23T21:01:52;101013.44;;;15.59;75.62
25156;BME280;21913;52.456;13.634;2023-05-23T21:06:54;101016.06;;;15.59;75.54
25156;BME280;21913;52.456;13.634;2023-05-23T21:11:55;101015.19;;;15.58;75.44
25156;BME280;21913;52.456;13.634;2023-05-23T21:16:57;101017.78;;;15.58;75.33
25156;BME280;21913;52.456;13.634;2023-05-23T21:21:58;101023.00;;;15.58;75.34
25156;BME280;21913;52.456;13.634;2023-05-23T21:27:00;101018.69;;;15.57;75.71
25156;BME280;21913;52.456;13.634;2023-05-23T21:32:01;101009.09;;;15.58;75.50
25156;BME280;21913;52.456;13.634;2023-05-23T21:37:03;101007.38;;;15.57;75.35
25156;BME280;21913;52.456;13.634;2023-05-23T21:42:06;101004.78;;;15.57;75.28
25156;BME280;21913;52.456;13.634;2023-05-23T21:47:07;101008.25;;;15.57;75.44
25156;BME280;21913;52.456;13.634;2023-05-23T21:52:09;101004.78;;;15.57;75.60
25156;BME280;21913;52.456;13.634;2023-05-23T21:57:10;101002.16;;;15.57;75.54
25156;BME280;21913;52.456;13.634;2023-05-23T22:02:12;100997.81;;;15.56;75.53
25156;BME280;21913;52.456;13.634;2023-05-23T22:07:14;101001.31;;;15.56;75.56
25156;BME280;21913;52.456;13.634;2023-05-23T22:12:15;101006.50;;;15.56;75.25
25156;BME280;21913;52.456;13.634;2023-05-23T22:17:17;101005.66;;;15.56;75.22
25156;BME280;21913;52.456;13.634;2023-05-23T22:22:19;101007.41;;;15.55;75.45
25156;BME280;21913;52.456;13.634;2023-05-23T22:27:20;101001.31;;;15.56;75.17
25156;BME280;21913;52.456;13.634;2023-05-23T22:32:22;101003.03;;;15.56;75.32
25156;BME280;21913;52.456;13.634;2023-05-23T22:37:24;101000.44;;;15.56;75.18
25156;BME280;21913;52.456;13.634;2023-05-23T22:42:25;100988.25;;;15.55;75.22
25156;BME280;21913;52.456;13.634;2023-05-23T22:47:27;101004.78;;;15.55;75.32
25156;BME280;21913;52.456;13.634;2023-05-23T22:52:28;101010.00;;;15.53;75.04
25156;BME280;21913;52.456;13.634;2023-05-23T22:57:30;101010.84;;;15.54;75.24
25156;BME280;21913;52.456;13.634;2023-05-23T23:02:34;101013.47;;;15.54;75.18
25156;BME280;21913;52.456;13.634;2023-05-23T23:07:36;101013.47;;;15.54;75.19
25156;BME280;21913;52.456;13.634;2023-05-23T23:12:37;101007.38;;;15.53;74.94
25156;BME280;21913;52.456;13.634;2023-05-23T23:17:39;101010.00;;;15.53;75.09
25156;BME280;21913;52.456;13.634;2023-05-23T23:22:40;101014.34;;;15.53;75.23
25156;BME280;21913;52.456;13.634;2023-05-23T23:27:42;101012.59;;;15.53;74.96
25156;BME280;21913;52.456;13.634;2023-05-23T23:32:43;101019.56;;;15.53;75.20
25156;BME280;21913;52.456;13.634;2023-05-23T23:37:45;101019.56;;;15.51;74.88
25156;BME280;21913;52.456;13.634;2023-05-23T23:42:46;101026.53;;;15.52;74.92
25156;BME280;21913;52.456;13.634;2023-05-23T23:47:48;101020.44;;;15.52;74.80
25156;BME280;21913;52.456;13.634;2023-05-23T23:52:49;101016.09;;;15.52;75.21
25156;BME280;21913;52.456;13.634;2023-05-23T23:57:51;101011.75;;;15.51;74.72
